Time;durP1;ratioP1;P1;durP2;ratioP2;P2;SDS_P1;SDS_P2;PMS_P1;PMS_P2;Temp;Humidity;BMP_temperature;BMP_pressure;BME280_temperature;BME280_humidity;BME280_pressure;Samples;Min_cycle;Max_cycle;Signal;HPM_P1;HPM_P2
2021/06/25 02:47:11;;;;;;;3.40;3.10;;;15.80;99.90;;;;;;5411686;23;88271;-82
2021/06/25 02:49:37;;;;;;;3.75;3.40;;;15.90;99.90;;;;;;4892011;28;86849;-82
2021/06/25 02:52:03;;;;;;;3.42;3.00;;;15.80;99.90;;;;;;4896525;28;86860;-82
2021/06/25 02:54:29;;;;;;;4.60;4.20;;;16.20;99.90;;;;;;4894484;28;87970;-83
2021/06/25 02:56:55;;;;;;;5.03;4.72;;;;;;;;;;4898481;28;86742;-83
2021/06/25 02:59:21;;;;;;;3.92;2.78;;;15.90;99.90;;;;;;4893232;28;86847;-82
2021/06/25 03:01:47;;;;;;;5.05;4.55;;;15.50;99.90;;;;;;4895953;28;86323;-83
2021/06/25 03:04:13;;;;;;;3.65;2.53;;;15.90;99.90;;;;;;4897266;28;86016;-81
2021/06/25 03:06:38;;;;;;;2.58;2.30;;;16.00;99.90;;;;;;4894318;28;86340;-82
2021/06/25 03:12:57;;;;;;;2.90;2.25;;;15.90;99.90;;;;;;4889754;28;86234;-80
2021/06/25 03:15:23;;;;;;;3.00;2.42;;;15.90;99.90;;;;;;4882747;28;86713;-81
2021/06/25 03:17:48;;;;;;;2.10;1.90;;;16.00;99.90;;;;;;4895823;28;86726;-81
2021/06/25 03:20:15;;;;;;;3.63;3.33;;;16.70;99.90;;;;;;4892072;28;88056;-83
2021/06/25 03:22:41;;;;;;;2.47;2.28;;;16.00;99.90;;;;;;4892428;28;87728;-82
2021/06/25 03:25:07;;;;;;;2.67;2.47;;;16.00;99.90;;;;;;4895512;28;86919;-81
2021/06/25 03:27:34;;;;;;;2.88;2.30;;;15.80;99.90;;;;;;4897329;28;87244;-83
2021/06/25 03:30:00;;;;;;;4.00;3.38;;;15.80;99.90;;;;;;4892834;28;88424;-81
2021/06/25 03:32:26;;;;;;;2.70;2.50;;;15.70;99.90;;;;;;4895047;28;86839;-80
2021/06/25 03:34:51;;;;;;;3.58;3.30;;;15.40;99.90;;;;;;4894851;28;86606;-83
2021/06/25 03:37:17;;;;;;;3.88;3.58;;;15.50;99.90;;;;;;4897041;28;86244;-83
2021/06/25 03:39:44;;;;;;;2.53;1.95;;;15.80;99.90;;;;;;4893793;28;86935;-82
2021/06/25 03:42:10;;;;;;;3.75;3.55;;;16.40;99.90;;;;;;4885916;28;86863;-83
2021/06/25 03:44:35;;;;;;;3.72;2.00;;;15.80;99.90;;;;;;4895169;28;87846;-80
2021/06/25 03:47:01;;;;;;;2.00;1.90;;;15.80;99.90;;;;;;4892625;28;86938;-81
2021/06/25 03:49:27;;;;;;;3.70;3.40;;;15.60;99.90;;;;;;4898475;28;87640;-82
2021/06/25 03:51:53;;;;;;;2.20;2.10;;;15.70;99.90;;;;;;4894311;28;87807;-81
2021/06/25 03:54:18;;;;;;;2.33;1.88;;;15.80;99.90;;;;;;4895872;28;86945;-82
2021/06/25 03:56:44;;;;;;;2.92;2.72;;;16.00;99.90;;;;;;4897794;28;86558;-83
2021/06/25 03:59:10;;;;;;;3.22;3.03;;;16.30;99.90;;;;;;4897518;28;86799;-83
2021/06/25 04:01:36;;;;;;;3.70;3.40;;;15.90;99.90;;;;;;4895697;28;86278;-83
2021/06/25 04:04:01;;;;;;;2.45;2.17;;;15.90;99.90;;;;;;4887369;28;91044;-83
2021/06/25 04:06:27;;;;;;;3.83;3.63;;;16.30;99.90;;;;;;4898439;28;86383;-83
2021/06/25 04:08:53;;;;;;;4.10;3.72;;;;;;;;;;4898608;28;87600;-83
2021/06/25 04:11:19;;;;;;;2.55;2.35;;;15.80;99.90;;;;;;4894383;28;88320;-84
2021/06/25 04:13:46;;;;;;;2.70;2.50;;;15.90;99.90;;;;;;4879327;28;87027;-83
2021/06/25 04:16:12;;;;;;;3.58;3.30;;;15.90;99.90;;;;;;4890794;28;86826;-83
2021/06/25 04:18:38;;;;;;;3.90;3.70;;;16.00;99.90;;;;;;4879009;28;87213;-84
2021/06/25 04:21:04;;;;;;;4.05;3.75;;;;;;;;;;4880261;28;87037;-84
2021/06/25 04:23:30;;;;;;;4.10;3.70;;;16.40;99.90;;;;;;4898830;28;86910;-83
2021/06/25 04:25:56;;;;;;;3.92;3.65;;;16.10;99.90;;;;;;4900692;28;85964;-83
2021/06/25 04:28:22;;;;;;;4.03;3.83;;;15.50;99.90;;;;;;4886129;28;87001;-82
2021/06/25 04:30:49;;;;;;;2.80;2.50;;;16.00;99.90;;;;;;4895158;28;86791;-84
2021/06/25 04:33:14;;;;;;;2.88;2.67;;;16.00;99.90;;;;;;4894346;28;88304;-82
2021/06/25 04:35:46;;;;;;;3.75;3.45;;;15.70;99.90;;;;;;4890064;28;86993;-85
2021/06/25 04:38:12;;;;;;;3.97;3.78;;;16.20;99.90;;;;;;4900082;28;87382;-84
2021/06/25 04:40:41;;;;;;;3.88;3.67;;;16.20;99.90;;;;;;4899735;28;86860;-84
2021/06/25 04:43:09;;;;;;;2.42;2.15;;;16.20;99.90;;;;;;4893965;28;86484;-85
2021/06/25 04:45:35;;;;;;;2.80;2.17;;;16.30;99.90;;;;;;4887708;28;86658;-82
2021/06/25 04:48:06;;;;;;;3.42;1.77;;;16.30;99.90;;;;;;4897105;28;87647;-84
2021/06/25 04:50:32;;;;;;;;;;;16.40;99.90;;;;;;4892284;28;86933;-82
2021/06/25 04:52:59;;;;;;;2.67;1.75;;;16.40;99.90;;;;;;4881617;28;86948;-84
2021/06/25 04:55:25;;;;;;;1.90;1.80;;;16.50;99.90;;;;;;4894501;28;86963;-83
2021/06/25 04:57:53;;;;;;;2.35;1.80;;;16.50;99.90;;;;;;4890163;28;87657;-83
2021/06/25 05:00:20;;;;;;;2.30;2.10;;;16.60;99.90;;;;;;4903125;28;88265;-82
2021/06/25 05:02:46;;;;;;;2.60;2.05;;;16.70;99.90;;;;;;4901038;28;86449;-82
2021/06/25 05:05:13;;;;;;;2.17;1.98;;;16.70;99.90;;;;;;4902594;28;86129;-82
2021/06/25 05:07:39;;;;;;;4.75;2.28;;;16.80;99.90;;;;;;4901526;28;87203;-85
2021/06/25 05:10:05;;;;;;;2.30;2.10;;;16.90;99.90;;;;;;4900040;28;86618;-82
2021/06/25 05:12:31;;;;;;;2.70;2.50;;;16.90;99.90;;;;;;4893377;28;86667;-82
2021/06/25 05:14:57;;;;;;;3.60;3.40;;;16.80;99.90;;;;;;4891173;28;86043;-83
2021/06/25 05:17:25;;;;;;;2.05;1.95;;;16.80;99.90;;;;;;4896830;28;87225;-81
2021/06/25 05:19:51;;;;;;;2.60;2.40;;;16.80;99.90;;;;;;4903136;28;86553;-81
2021/06/25 05:22:17;;;;;;;1.92;1.83;;;16.80;99.90;;;;;;4901318;28;87498;-83
2021/06/25 05:24:43;;;;;;;3.45;2.00;;;16.80;99.90;;;;;;4896262;28;86943;-83
2021/06/25 05:27:08;;;;;;;2.80;2.30;;;16.80;99.90;;;;;;4894615;28;86656;-83
2021/06/25 05:29:34;;;;;;;2.35;2.15;;;16.90;99.90;;;;;;4895573;28;86732;-84
2021/06/25 05:32:01;;;;;;;2.58;2.38;;;16.90;99.90;;;;;;4897280;28;86810;-84
2021/06/25 05:34:27;;;;;;;3.95;2.33;;;17.00;99.90;;;;;;4892090;28;87586;-78
2021/06/25 05:36:54;;;;;;;2.33;2.13;;;17.00;99.90;;;;;;4891194;28;87607;-78
2021/06/25 05:39:20;;;;;;;2.50;2.30;;;17.00;99.90;;;;;;4890503;28;86999;-78
2021/06/25 05:41:45;;;;;;;2.83;2.50;;;16.90;99.90;;;;;;4875097;28;86701;-79
2021/06/25 05:44:11;;;;;;;2.22;2.13;;;16.90;99.90;;;;;;4890316;28;87100;-84
2021/06/25 05:46:37;;;;;;;2.78;2.30;;;16.90;99.90;;;;;;4896029;28;88098;-82
2021/06/25 05:49:03;;;;;;;2.22;2.10;;;17.10;99.90;;;;;;4898447;28;88084;-82
2021/06/25 05:51:28;;;;;;;2.70;2.25;;;17.10;99.90;;;;;;4897036;28;86792;-83
2021/06/25 05:53:54;;;;;;;3.00;2.15;;;17.10;99.90;;;;;;4896831;28;86773;-83
2021/06/25 05:56:20;;;;;;;2.33;2.10;;;17.30;99.90;;;;;;4895804;28;87729;-83
2021/06/25 05:58:46;;;;;;;5.97;3.60;;;17.50;99.90;;;;;;4896614;28;87259;-85
2021/06/25 06:04:33;;;;;;;2.30;2.10;;;17.80;99.90;;;;;;4894722;28;85963;-84
2021/06/25 06:07:01;;;;;;;3.53;1.95;;;18.00;99.90;;;;;;4897736;28;87297;-83
2021/06/25 06:09:27;;;;;;;2.75;2.35;;;18.10;99.90;;;;;;4897512;28;87131;-83
2021/06/25 06:15:18;;;;;;;2.03;1.92;;;18.20;99.90;;;;;;4893633;28;86031;-83
2021/06/25 06:21:05;;;;;;;4.45;3.72;;;18.60;99.90;;;;;;4894029;28;86894;-83
2021/06/25 06:32:30;;;;;;;4.88;4.57;;;18.30;99.90;;;;;;4896109;28;86224;-83
2021/06/25 06:38:18;;;;;;;5.18;4.65;;;18.20;99.90;;;;;;4875537;29;86721;-84
2021/06/25 06:40:44;;;;;;;4.18;3.83;;;18.00;99.90;;;;;;4883931;28;89539;-83
2021/06/25 06:43:10;;;;;;;4.97;4.55;;;18.10;99.90;;;;;;4895329;28;86988;-83
2021/06/25 06:45:36;;;;;;;4.70;4.30;;;18.00;99.90;;;;;;4898846;28;86565;-82
2021/06/25 06:48:03;;;;;;;5.43;4.90;;;18.00;99.90;;;;;;4906507;28;86590;-81
2021/06/25 06:50:29;;;;;;;6.75;6.25;;;;;;;;;;4904286;28;86809;-82
2021/06/25 06:52:54;;;;;;;6.05;5.55;;;18.00;99.90;;;;;;4906857;28;86706;-82
2021/06/25 06:55:21;;;;;;;6.13;5.63;;;18.00;99.90;;;;;;4907582;28;86023;-82
2021/06/25 06:57:47;;;;;;;4.82;4.43;;;17.70;99.90;;;;;;4902648;28;86399;-84
2021/06/25 07:00:14;;;;;;;5.53;5.03;;;17.50;99.90;;;;;;4896145;28;87127;-84
2021/06/25 07:02:42;;;;;;;4.50;3.45;;;17.60;99.90;;;;;;4896310;28;87470;-84
2021/06/25 07:05:10;;;;;;;4.20;3.80;;;17.70;99.90;;;;;;4890872;28;87783;-84
2021/06/25 07:07:36;;;;;;;3.90;3.58;;;17.70;99.90;;;;;;4896107;28;86730;-84
2021/06/25 07:10:05;;;;;;;4.25;3.95;;;17.70;99.90;;;;;;4898332;28;87152;-83
2021/06/25 07:12:30;;;;;;;3.72;3.42;;;17.80;99.90;;;;;;4895541;28;86736;-84
2021/06/25 07:14:56;;;;;;;5.32;3.38;;;17.80;99.90;;;;;;4898663;28;86387;-83
2021/06/25 07:17:22;;;;;;;4.10;3.70;;;17.90;99.90;;;;;;4894666;28;86269;-83
2021/06/25 07:19:49;;;;;;;3.70;3.40;;;18.10;99.90;;;;;;4898424;28;88204;-84
2021/06/25 07:22:15;;;;;;;4.72;4.30;;;18.50;99.90;;;;;;4897024;28;87046;-83
2021/06/25 07:24:41;;;;;;;5.10;4.78;;;19.10;99.90;;;;;;4898152;28;86709;-83
2021/06/25 07:27:07;;;;;;;3.67;3.40;;;18.70;99.90;;;;;;4897410;28;86280;-83
2021/06/25 07:29:33;;;;;;;4.18;3.80;;;19.00;99.90;;;;;;4895477;28;87981;-82
2021/06/25 07:31:59;;;;;;;3.92;3.58;;;19.30;99.90;;;;;;4893434;28;87901;-84
2021/06/25 07:34:25;;;;;;;5.35;3.80;;;19.60;99.90;;;;;;4876675;28;86591;-83
2021/06/25 07:36:50;;;;;;;4.60;3.70;;;20.00;99.90;;;;;;4878035;29;87021;-83
2021/06/25 07:42:39;;;;;;;3.47;3.28;;;20.70;99.90;;;;;;4878902;29;86928;-82
2021/06/25 07:45:08;;;;;;;5.88;5.30;;;21.10;99.90;;;;;;4880513;28;86645;-83
2021/06/25 07:47:39;;;;;;;4.18;3.58;;;21.10;99.90;;;;;;4893302;28;86319;-81
2021/06/25 07:50:08;;;;;;;4.63;3.50;;;21.20;99.90;;;;;;4900179;28;86720;-83
2021/06/25 07:55:56;;;;;;;5.93;4.28;;;20.80;98.20;;;;;;4896450;28;87521;-83
2021/06/25 07:58:22;;;;;;;4.15;3.85;;;21.50;98.80;;;;;;4903483;28;86548;-83
2021/06/25 08:01:15;;;;;;;3.70;3.05;;;21.10;98.50;;;;;;4899581;28;86825;-83
2021/06/25 08:03:40;;;;;;;3.17;2.97;;;21.30;98.50;;;;;;4882290;28;86696;-81
2021/06/25 08:06:07;;;;;;;3.45;2.60;;;21.70;97.60;;;;;;4883425;28;86596;-83
2021/06/25 08:08:33;;;;;;;3.80;2.30;;;22.20;96.20;;;;;;4881047;28;87026;-84
2021/06/25 08:14:21;;;;;;;2.83;2.40;;;22.60;91.40;;;;;;4885789;28;85978;-84
2021/06/25 08:16:46;;;;;;;2.45;2.20;;;22.80;92.70;;;;;;4897330;28;86423;-82
2021/06/25 08:19:12;;;;;;;4.00;3.70;;;23.20;90.70;;;;;;4893859;28;90295;-85
2021/06/25 08:21:38;;;;;;;3.17;2.97;;;22.90;90.40;;;;;;4890403;28;88727;-85
2021/06/25 08:24:04;;;;;;;2.50;2.30;;;22.50;90.60;;;;;;4889470;28;87864;-84
2021/06/25 08:26:29;;;;;;;3.70;3.50;;;21.90;90.90;;;;;;4891829;28;86980;-84
2021/06/25 08:28:56;;;;;;;3.63;3.42;;;22.10;91.20;;;;;;4893538;28;86933;-85
2021/06/25 08:31:22;;;;;;;4.05;3.75;;;22.10;91.60;;;;;;4889432;28;87374;-84
2021/06/25 08:33:47;;;;;;;3.90;3.42;;;21.80;90.20;;;;;;4892706;28;86914;-85
2021/06/25 08:36:13;;;;;;;3.67;2.50;;;22.00;90.70;;;;;;4895446;28;86961;-85
2021/06/25 08:38:39;;;;;;;4.10;3.80;;;22.50;90.80;;;;;;4894510;28;85524;-85
2021/06/25 08:41:05;;;;;;;3.60;3.40;;;22.30;90.70;;;;;;4894163;28;87186;-85
2021/06/25 08:43:31;;;;;;;2.75;2.55;;;22.20;90.90;;;;;;4895894;28;86981;-85
2021/06/25 08:45:59;;;;;;;3.28;2.53;;;22.20;91.10;;;;;;4893202;28;87611;-85
2021/06/25 08:48:28;;;;;;;3.28;2.97;;;22.20;91.60;;;;;;4892659;28;87371;-84
2021/06/25 08:50:58;;;;;;;5.22;4.82;;;22.50;90.00;;;;;;4895061;28;87392;-85
2021/06/25 08:53:24;;;;;;;7.35;4.78;;;22.90;90.60;;;;;;4898284;28;87598;-83
2021/06/25 08:55:50;;;;;;;4.38;4.07;;;22.40;87.70;;;;;;4893171;28;86538;-86
2021/06/25 08:58:18;;;;;;;2.80;2.60;;;22.60;88.40;;;;;;4891377;28;87385;-85
2021/06/25 09:00:44;;;;;;;4.20;3.90;;;23.00;88.40;;;;;;4899284;28;87380;-85
2021/06/25 09:03:20;;;;;;;3.10;2.80;;;23.30;89.00;;;;;;4900476;28;86515;-85
2021/06/25 09:05:46;;;;;;;3.20;2.90;;;23.50;83.90;;;;;;4899071;28;86479;-85
2021/06/25 09:08:26;;;;;;;3.75;2.83;;;23.60;82.00;;;;;;4896696;28;86743;-82
2021/06/25 09:10:55;;;;;;;4.65;4.25;;;23.50;84.20;;;;;;4891892;28;89035;-85
2021/06/25 09:13:36;;;;;;;5.30;4.80;;;23.70;83.30;;;;;;4891957;28;87194;-83
2021/06/25 09:16:18;;;;;;;5.57;4.93;;;23.70;81.90;;;;;;4875064;28;86646;-83
2021/06/25 09:18:57;;;;;;;4.88;4.55;;;23.90;81.30;;;;;;4885887;28;87116;-83
2021/06/25 09:21:23;;;;;;;4.30;3.90;;;23.90;80.00;;;;;;4893396;28;86920;-83
2021/06/25 09:23:49;;;;;;;5.53;4.20;;;24.00;79.10;;;;;;4885765;28;86839;-84
2021/06/25 09:26:16;;;;;;;3.70;2.95;;;24.10;79.50;;;;;;4893543;28;86885;-85
2021/06/25 09:28:44;;;;;;;4.68;3.20;;;24.40;77.70;;;;;;4893546;28;85952;-83
2021/06/25 09:31:19;;;;;;;5.35;4.85;;;25.30;76.40;;;;;;4894606;28;87009;-85
2021/06/25 09:34:17;;;;;;;4.55;4.28;;;27.00;72.10;;;;;;4892074;28;87431;-84
2021/06/25 09:36:43;;;;;;;4.45;4.05;;;27.10;70.00;;;;;;4890182;28;87974;-84
2021/06/25 09:39:12;;;;;;;5.30;4.90;;;27.10;64.60;;;;;;4893502;28;87059;-84
2021/06/25 09:41:43;;;;;;;4.88;4.47;;;26.70;66.90;;;;;;4891096;28;87301;-85
2021/06/25 09:44:17;;;;;;;4.60;4.30;;;26.70;67.40;;;;;;4876439;28;87465;-85
2021/06/25 09:46:44;;;;;;;5.57;5.18;;;25.80;67.20;;;;;;4882086;28;87058;-84
2021/06/25 09:49:12;;;;;;;5.85;5.20;;;25.80;67.90;;;;;;4887225;28;87134;-85
2021/06/25 09:51:41;;;;;;;5.70;5.20;;;25.40;69.90;;;;;;4890606;28;87860;-84
2021/06/25 09:54:22;;;;;;;5.57;5.15;;;25.20;69.50;;;;;;4889435;28;87381;-83
2021/06/25 09:57:12;;;;;;;5.43;5.03;;;24.80;70.10;;;;;;4880270;28;86697;-83
2021/06/25 10:02:24;;;;;;;5.82;5.40;;;24.50;72.10;;;;;;4894082;28;88165;-83
2021/06/25 10:05:26;;;;;;;5.90;5.50;;;24.50;73.00;;;;;;4888167;28;89697;-83
2021/06/25 10:07:52;;;;;;;5.90;5.40;;;24.70;71.10;;;;;;4881226;28;86822;-77
2021/06/25 10:10:18;;;;;;;6.60;6.00;;;25.20;71.80;;;;;;4884982;28;86963;-77
2021/06/25 10:12:44;;;;;;;7.38;5.68;;;26.80;67.50;;;;;;4885024;28;88172;-76
2021/06/25 10:15:10;;;;;;;5.20;4.00;;;26.70;67.80;;;;;;4878957;28;86866;-76
2021/06/25 10:17:37;;;;;;;5.30;4.90;;;27.20;65.20;;;;;;4881797;28;86849;-75
2021/06/25 10:20:07;;;;;;;4.35;4.00;;;29.20;63.10;;;;;;4880993;28;86191;-75
2021/06/25 10:22:34;;;;;;;3.58;3.28;;;31.10;59.70;;;;;;4882485;28;88259;-76
2021/06/25 10:25:02;;;;;;;5.22;4.82;;;32.40;54.20;;;;;;4884797;28;91352;-77
2021/06/25 10:27:29;;;;;;;5.03;4.00;;;32.40;54.40;;;;;;4879219;28;88134;-76
2021/06/25 10:29:57;;;;;;;4.10;3.70;;;32.40;53.30;;;;;;4880003;28;87699;-76
2021/06/25 10:32:23;;;;;;;4.10;3.80;;;32.30;51.50;;;;;;4883783;28;87261;-76
2021/06/25 10:34:49;;;;;;;3.95;3.65;;;32.10;49.40;;;;;;4882958;28;88174;-76
2021/06/25 10:37:28;;;;;;;3.88;3.60;;;32.30;51.40;;;;;;4882187;28;86942;-76
2021/06/25 10:39:54;;;;;;;4.15;3.85;;;32.70;49.30;;;;;;4876649;28;87011;-76
2021/06/25 10:42:19;;;;;;;3.80;3.50;;;32.10;50.90;;;;;;4880230;28;87117;-77
2021/06/25 10:44:56;;;;;;;5.10;4.80;;;30.90;51.90;;;;;;4890972;28;86237;-85
2021/06/25 10:47:32;;;;;;;5.95;5.53;;;29.30;51.90;;;;;;4897492;28;86698;-82
2021/06/25 10:50:01;;;;;;;4.90;3.83;;;29.60;52.10;;;;;;4897402;28;86710;-82
2021/06/25 10:52:35;;;;;;;5.60;5.10;;;28.20;53.40;;;;;;4896402;28;87739;-83
2021/06/25 10:55:10;;;;;;;5.80;5.40;;;28.40;51.80;;;;;;4897134;28;89130;-83
2021/06/25 10:57:57;;;;;;;3.67;3.38;;;28.50;51.70;;;;;;4896722;28;86770;-82
2021/06/25 11:00:38;;;;;;;4.10;3.80;;;28.00;54.40;;;;;;4897533;28;86593;-83
2021/06/25 11:03:04;;;;;;;3.70;3.40;;;27.60;56.50;;;;;;4896471;28;87779;-83
2021/06/25 11:05:34;;;;;;;5.82;5.32;;;27.30;56.50;;;;;;4898723;28;86483;-82
2021/06/25 11:08:19;;;;;;;6.43;5.00;;;26.90;56.80;;;;;;4897644;28;86807;-81
2021/06/25 11:10:56;;;;;;;6.13;5.53;;;26.90;57.30;;;;;;4886189;28;86061;-81
2021/06/25 11:13:25;;;;;;;5.47;5.00;;;26.90;57.10;;;;;;4874164;28;87463;-80
2021/06/25 11:19:34;;;;;;;6.15;5.65;;;26.80;56.90;;;;;;4872835;29;87859;-84
2021/06/25 11:21:59;;;;;;;5.78;5.28;;;26.00;57.60;;;;;;4881349;28;86410;-83
2021/06/25 11:24:48;;;;;;;5.35;4.95;;;26.30;59.20;;;;;;4890131;28;87220;-82
2021/06/25 11:27:14;;;;;;;6.07;5.57;;;26.30;60.20;;;;;;4891934;28;86846;-83
2021/06/25 11:29:45;;;;;;;5.60;5.10;;;26.30;59.00;;;;;;4893949;28;86358;-84
2021/06/25 11:32:12;;;;;;;5.60;5.20;;;26.30;59.30;;;;;;4889101;28;86861;-84
2021/06/25 11:34:38;;;;;;;5.38;4.97;;;26.30;60.30;;;;;;4892635;28;87054;-83
2021/06/25 11:37:04;;;;;;;5.55;5.15;;;26.10;59.30;;;;;;4891946;28;86937;-84
2021/06/25 11:39:36;;;;;;;6.57;6.07;;;26.00;58.70;;;;;;4892689;28;86844;-84
2021/06/25 11:42:12;;;;;;;5.55;5.07;;;26.30;59.90;;;;;;4894143;28;87034;-83
2021/06/25 11:44:40;;;;;;;6.05;5.45;;;26.60;59.80;;;;;;4887843;28;88240;-84
2021/06/25 11:47:07;;;;;;;5.78;5.30;;;26.40;59.10;;;;;;4893331;28;88025;-84
2021/06/25 11:52:20;;;;;;;5.95;5.55;;;26.40;58.90;;;;;;4892435;28;86868;-84
2021/06/25 11:54:50;;;;;;;4.35;3.75;;;26.40;59.70;;;;;;4894925;28;87423;-84
2021/06/25 11:57:39;;;;;;;6.40;5.88;;;26.30;58.70;;;;;;4895141;28;88451;-84
2021/06/25 12:00:14;;;;;;;5.63;5.17;;;26.40;57.60;;;;;;4897371;28;86718;-85
2021/06/25 12:02:58;;;;;;;5.88;5.30;;;26.50;57.70;;;;;;4895780;28;85944;-82
2021/06/25 12:05:33;;;;;;;6.13;5.63;;;26.80;59.00;;;;;;4894463;28;86695;-83
2021/06/25 12:08:05;;;;;;;5.80;5.30;;;26.80;58.70;;;;;;4892402;28;86654;-82
2021/06/25 12:10:30;;;;;;;4.15;3.83;;;27.00;57.30;;;;;;4897049;28;87212;-84
2021/06/25 12:12:59;;;;;;;5.80;5.45;;;27.10;58.20;;;;;;4893661;28;87143;-83
2021/06/25 12:15:26;;;;;;;5.65;5.20;;;27.80;57.30;;;;;;4893922;28;90296;-83
2021/06/25 12:17:54;;;;;;;3.72;3.38;;;28.90;56.50;;;;;;4893725;28;90872;-83
2021/06/25 12:20:29;;;;;;;3.97;3.67;;;29.50;54.50;;;;;;4895270;28;86874;-81
2021/06/25 12:22:59;;;;;;;5.43;5.13;;;30.80;52.00;;;;;;4886082;28;88272;-83
2021/06/25 12:25:41;;;;;;;5.72;5.32;;;30.80;52.40;;;;;;4893341;28;87028;-82
2021/06/25 12:28:18;;;;;;;5.40;5.03;;;30.60;51.60;;;;;;4879957;28;87018;-84
2021/06/25 12:30:46;;;;;;;5.78;5.28;;;30.50;51.60;;;;;;4889953;28;86894;-79
2021/06/25 12:33:13;;;;;;;6.00;5.40;;;29.90;52.50;;;;;;4895938;28;86282;-82
2021/06/25 12:35:44;;;;;;;4.97;4.57;;;29.80;53.00;;;;;;4898284;28;88574;-82
2021/06/25 12:38:12;;;;;;;5.10;4.70;;;29.70;53.20;;;;;;4899417;28;87971;-83
2021/06/25 12:40:41;;;;;;;5.97;5.47;;;28.90;52.70;;;;;;4897415;28;86724;-83
2021/06/25 12:43:11;;;;;;;5.63;5.22;;;28.90;53.40;;;;;;4898147;28;87138;-83
2021/06/25 12:45:57;;;;;;;5.65;5.25;;;28.80;53.80;;;;;;4889924;28;87228;-82
2021/06/25 12:48:28;;;;;;;5.18;4.78;;;28.80;54.40;;;;;;4888910;28;86902;-84
2021/06/25 12:51:02;;;;;;;4.95;4.65;;;29.00;52.60;;;;;;4896060;28;86835;-83
2021/06/25 12:53:31;;;;;;;5.07;4.78;;;29.30;53.10;;;;;;4891849;28;86087;-84
2021/06/25 12:55:59;;;;;;;4.65;4.35;;;29.50;53.30;;;;;;4894268;28;88145;-84
2021/06/25 12:58:27;;;;;;;5.40;5.10;;;29.70;52.70;;;;;;4897311;28;87111;-83
2021/06/25 13:00:57;;;;;;;5.15;4.85;;;30.70;51.30;;;;;;4889389;28;87801;-85
2021/06/25 13:03:23;;;;;;;;;;;32.10;49.00;;;;;;4898813;28;87022;-85
2021/06/25 13:05:48;;;;;;;5.00;4.60;;;33.40;47.60;;;;;;4894559;28;87094;-84
2021/06/25 13:08:22;;;;;;;4.75;4.45;;;34.60;44.50;;;;;;4894017;28;88011;-83
2021/06/25 13:10:49;;;;;;;4.45;4.25;;;35.60;42.10;;;;;;4897247;28;87028;-84
2021/06/25 13:13:24;;;;;;;5.15;4.75;;;37.00;38.90;;;;;;4893111;28;86474;-84
2021/06/25 13:15:56;;;;;;;5.05;4.75;;;37.30;39.30;;;;;;4891664;28;87730;-85
2021/06/25 13:18:24;;;;;;;5.07;4.78;;;37.30;39.50;;;;;;4896328;28;87003;-85
2021/06/25 13:21:24;;;;;;;4.70;4.50;;;37.30;40.60;;;;;;4892488;28;86526;-86
2021/06/25 13:24:21;;;;;;;5.03;4.72;;;37.50;39.50;;;;;;4887903;28;86986;-86
2021/06/25 13:26:48;;;;;;;5.13;4.82;;;37.50;39.20;;;;;;4895613;28;88341;-83
2021/06/25 13:29:15;;;;;;;5.18;4.72;;;37.10;39.10;;;;;;4901966;28;87201;-84
2021/06/25 13:31:56;;;;;;;4.88;4.65;;;36.90;38.50;;;;;;4899394;28;86839;-84
2021/06/25 13:34:23;;;;;;;5.20;4.90;;;36.30;38.60;;;;;;4913143;28;87224;-83
2021/06/25 13:37:04;;;;;;;5.13;4.72;;;36.10;39.70;;;;;;4901030;28;89346;-84
2021/06/25 13:39:33;;;;;;;5.05;4.72;;;35.70;39.40;;;;;;4885047;28;87220;-82
2021/06/25 13:42:00;;;;;;;4.87;4.57;;;35.20;40.80;;;;;;4894450;28;86831;-83
2021/06/25 13:44:31;;;;;;;4.80;4.60;;;35.20;41.20;;;;;;4893398;28;85849;-81
2021/06/25 13:47:15;;;;;;;5.20;4.90;;;35.20;38.70;;;;;;4897679;28;86793;-82
2021/06/25 13:49:44;;;;;;;4.90;4.60;;;34.60;40.70;;;;;;4896825;28;87814;-84
2021/06/25 13:52:27;;;;;;;5.00;4.70;;;34.80;41.80;;;;;;4887212;28;87782;-84
2021/06/25 13:55:22;;;;;;;5.68;5.38;;;34.90;40.90;;;;;;4881207;28;87806;-84
2021/06/25 13:57:56;;;;;;;5.05;4.75;;;34.90;39.70;;;;;;4892686;28;87006;-83
2021/06/25 14:00:42;;;;;;;5.43;5.03;;;34.10;41.70;;;;;;4889657;28;88512;-84
2021/06/25 14:03:23;;;;;;;4.78;4.50;;;33.80;40.50;;;;;;4894291;28;86663;-82
2021/06/25 14:05:56;;;;;;;4.72;4.43;;;33.80;42.30;;;;;;4894454;28;86223;-83
2021/06/25 14:08:22;;;;;;;4.88;4.57;;;33.50;42.30;;;;;;4896306;28;87529;-86
2021/06/25 14:10:55;;;;;;;5.00;4.70;;;33.40;42.60;;;;;;4891969;28;88095;-85
2021/06/25 14:13:38;;;;;;;5.30;4.90;;;32.90;42.90;;;;;;4890293;28;87197;-84
2021/06/25 14:16:37;;;;;;;4.70;4.40;;;32.10;43.00;;;;;;4886505;28;86980;-84
2021/06/25 14:19:11;;;;;;;4.43;4.15;;;31.50;44.60;;;;;;4859430;28;88459;-84
2021/06/25 14:21:43;;;;;;;5.25;4.95;;;30.00;45.10;;;;;;4896270;28;87943;-85
2021/06/25 14:24:12;;;;;;;4.85;4.55;;;29.80;46.70;;;;;;4886356;28;87338;-84
2021/06/25 14:26:38;;;;;;;5.20;4.80;;;28.90;48.10;;;;;;4900314;28;86210;-85
2021/06/25 14:29:06;;;;;;;5.35;5.05;;;28.90;49.20;;;;;;4890399;28;87198;-85
2021/06/25 14:34:53;;;;;;;4.72;4.43;;;28.30;50.10;;;;;;4889076;28;86892;-85
2021/06/25 14:37:19;;;;;;;4.88;4.57;;;28.00;50.50;;;;;;4892778;28;85849;-84
2021/06/25 14:39:45;;;;;;;4.80;4.50;;;27.80;51.30;;;;;;4894177;28;87967;-85
2021/06/25 14:42:11;;;;;;;5.03;4.68;;;27.50;51.20;;;;;;4894063;28;86630;-84
2021/06/25 14:44:36;;;;;;;4.88;4.47;;;27.30;52.00;;;;;;4895432;28;87789;-85
2021/06/25 14:47:02;;;;;;;4.90;4.60;;;27.20;51.90;;;;;;4895456;28;86906;-85
2021/06/25 14:49:28;;;;;;;4.93;4.63;;;27.30;52.20;;;;;;4892099;28;87331;-85
2021/06/25 14:51:53;;;;;;;5.07;4.70;;;27.30;52.30;;;;;;4896015;28;86883;-85
2021/06/25 14:54:19;;;;;;;4.78;4.47;;;27.40;53.20;;;;;;4895434;28;87143;-85
2021/06/25 14:56:45;;;;;;;4.70;4.40;;;27.30;53.10;;;;;;4889582;28;86946;-85
2021/06/25 14:59:10;;;;;;;4.72;4.47;;;27.60;53.30;;;;;;4894840;28;88421;-85
2021/06/25 15:01:36;;;;;;;4.38;4.18;;;28.00;52.30;;;;;;4896745;28;86952;-84
2021/06/25 15:04:02;;;;;;;5.00;4.70;;;28.30;51.90;;;;;;4896450;28;86923;-83
2021/06/25 15:06:28;;;;;;;4.65;4.35;;;28.40;51.50;;;;;;4902988;28;86432;-85
2021/06/25 15:08:53;;;;;;;5.22;4.82;;;28.20;49.30;;;;;;4901270;28;88696;-85
2021/06/25 15:11:20;;;;;;;4.65;4.35;;;28.00;50.90;;;;;;4901249;28;87120;-85
2021/06/25 15:13:45;;;;;;;4.72;4.43;;;27.80;51.70;;;;;;4903781;28;86192;-84
2021/06/25 15:16:11;;;;;;;4.60;4.30;;;27.60;51.90;;;;;;4891633;28;86834;-84
2021/06/25 15:18:37;;;;;;;4.72;4.43;;;27.40;52.40;;;;;;4890022;28;87757;-85
2021/06/25 15:21:03;;;;;;;3.53;3.22;;;27.10;52.70;;;;;;4896591;28;86423;-85
2021/06/25 15:23:28;;;;;;;5.25;4.75;;;26.90;53.50;;;;;;4885054;28;87007;-85
2021/06/25 15:25:54;;;;;;;3.60;3.30;;;26.70;52.60;;;;;;4888086;28;86318;-85
2021/06/25 15:28:20;;;;;;;5.10;4.80;;;26.80;53.30;;;;;;4893459;28;87654;-85
2021/06/25 15:30:45;;;;;;;4.72;4.43;;;26.70;53.80;;;;;;4895139;28;87013;-86
2021/06/25 15:33:12;;;;;;;4.78;4.47;;;26.70;53.10;;;;;;4894725;28;87222;-85
2021/06/25 15:35:38;;;;;;;4.53;4.22;;;26.80;53.00;;;;;;4893026;28;86855;-84
2021/06/25 15:38:05;;;;;;;4.80;4.40;;;27.00;53.80;;;;;;4898539;28;87455;-84
2021/06/25 15:40:32;;;;;;;4.57;4.18;;;27.00;53.30;;;;;;4897454;28;88193;-83
2021/06/25 15:42:58;;;;;;;4.35;4.05;;;26.80;52.00;;;;;;4889161;28;86651;-84
2021/06/25 15:45:24;;;;;;;4.00;3.80;;;26.80;52.90;;;;;;4885912;28;86887;-85
2021/06/25 15:47:50;;;;;;;4.15;3.85;;;27.00;51.50;;;;;;4887563;28;87188;-86
2021/06/25 15:50:16;;;;;;;3.03;2.80;;;26.90;51.90;;;;;;4893402;28;86878;-85
2021/06/25 15:52:42;;;;;;;4.78;4.00;;;26.80;52.30;;;;;;4893583;28;87132;-85
2021/06/25 15:55:08;;;;;;;4.60;4.25;;;26.90;52.70;;;;;;4889519;28;86967;-85
2021/06/25 15:57:34;;;;;;;4.80;4.53;;;26.90;52.80;;;;;;4900772;28;88528;-86
2021/06/25 16:00:00;;;;;;;4.38;4.18;;;26.80;52.70;;;;;;4896284;28;87857;-84
2021/06/25 16:02:28;;;;;;;5.07;4.68;;;26.80;52.30;;;;;;4897930;28;86863;-85
2021/06/25 16:04:54;;;;;;;4.97;4.68;;;26.50;52.80;;;;;;4897017;28;87116;-84
2021/06/25 16:07:21;;;;;;;4.97;4.53;;;26.30;53.30;;;;;;4895969;28;86551;-86
2021/06/25 16:09:51;;;;;;;4.47;4.07;;;26.00;54.50;;;;;;4896891;28;87425;-86
2021/06/25 16:12:18;;;;;;;;;;;26.00;54.80;;;;;;4895997;28;86917;-84
2021/06/25 16:14:44;;;;;;;4.55;4.25;;;25.80;54.50;;;;;;4901176;28;86290;-84
2021/06/25 16:17:09;;;;;;;4.40;4.10;;;25.60;55.20;;;;;;4891760;28;87401;-85
2021/06/25 16:19:35;;;;;;;4.55;4.20;;;25.70;55.50;;;;;;4896292;28;87090;-86
2021/06/25 16:22:01;;;;;;;3.63;2.88;;;25.70;53.80;;;;;;4896745;28;87648;-84
2021/06/25 16:24:27;;;;;;;4.53;4.10;;;25.40;54.10;;;;;;4895152;28;86942;-84
2021/06/25 16:26:53;;;;;;;4.05;3.75;;;25.30;54.40;;;;;;4898366;28;87181;-86
2021/06/25 16:29:20;;;;;;;4.70;4.40;;;;;;;;;;4895410;28;87369;-84
2021/06/25 16:31:46;;;;;;;5.15;4.78;;;24.90;55.10;;;;;;4890122;28;86701;-85
2021/06/25 16:34:12;;;;;;;4.40;4.10;;;24.90;55.40;;;;;;4891103;28;87495;-85